sensor_id;sensor_type;location;lat;lon;timestamp;P1;durP1;ratioP1;P2;durP2;ratioP2
23362;SDS011;11853;48.080;11.960;2023-07-24T00:01:30;10.95;;;8.25;;
23362;SDS011;11853;48.080;11.960;2023-07-24T00:03:56;9.98;;;8.15;;
23362;SDS011;11853;48.080;11.960;2023-07-24T00:06:21;10.25;;;7.75;;
23362;SDS011;11853;48.080;11.960;2023-07-24T00:08:47;8.68;;;7.25;;
23362;SDS011;11853;48.080;11.960;2023-07-24T00:11:12;9.75;;;7.45;;
23362;SDS011;11853;48.080;11.960;2023-07-24T00:13:38;9.90;;;7.47;;
23362;SDS011;11853;48.080;11.960;2023-07-24T00:16:07;9.02;;;6.97;;
23362;SDS011;11853;48.080;11.960;2023-07-24T00:18:33;8.68;;;7.25;;
23362;SDS011;11853;48.080;11.960;2023-07-24T00:20:59;9.18;;;7.85;;
23362;SDS011;11853;48.080;11.960;2023-07-24T00:23:24;10.65;;;7.68;;
23362;SDS011;11853;48.080;11.960;2023-07-24T00:25:50;10.48;;;7.47;;
23362;SDS011;11853;48.080;11.960;2023-07-24T00:28:15;8.70;;;7.68;;
23362;SDS011;11853;48.080;11.960;2023-07-24T00:30:41;9.40;;;8.32;;
23362;SDS011;11853;48.080;11.960;2023-07-24T00:33:07;10.18;;;7.45;;
23362;SDS011;11853;48.080;11.960;2023-07-24T00:35:33;9.73;;;7.80;;
23362;SDS011;11853;48.080;11.960;2023-07-24T00:37:58;10.77;;;7.93;;
23362;SDS011;11853;48.080;11.960;2023-07-24T00:40:24;11.10;;;7.80;;
23362;SDS011;11853;48.080;11.960;2023-07-24T00:42:49;9.10;;;7.00;;
23362;SDS011;11853;48.080;11.960;2023-07-24T00:45:15;8.18;;;6.85;;
23362;SDS011;11853;48.080;11.960;2023-07-24T00:47:41;8.30;;;7.35;;
23362;SDS011;11853;48.080;11.960;2023-07-24T00:50:07;10.98;;;7.93;;
23362;SDS011;11853;48.080;11.960;2023-07-24T00:52:34;11.35;;;7.55;;
23362;SDS011;11853;48.080;11.960;2023-07-24T00:55:00;9.45;;;8.23;;
23362;SDS011;11853;48.080;11.960;2023-07-24T00:57:26;9.60;;;7.88;;
23362;SDS011;11853;48.080;11.960;2023-07-24T00:59:51;9.32;;;7.15;;
23362;SDS011;11853;48.080;11.960;2023-07-24T01:02:17;8.75;;;7.35;;
23362;SDS011;11853;48.080;11.960;2023-07-24T01:04:43;8.65;;;6.93;;
23362;SDS011;11853;48.080;11.960;2023-07-24T01:07:09;12.40;;;7.72;;
23362;SDS011;11853;48.080;11.960;2023-07-24T01:09:34;9.13;;;7.88;;
23362;SDS011;11853;48.080;11.960;2023-07-24T01:12:04;10.20;;;7.30;;
23362;SDS011;11853;48.080;11.960;2023-07-24T01:15:13;9.80;;;7.07;;
23362;SDS011;11853;48.080;11.960;2023-07-24T01:17:50;9.00;;;7.38;;
23362;SDS011;11853;48.080;11.960;2023-07-24T01:20:29;9.25;;;6.90;;
23362;SDS011;11853;48.080;11.960;2023-07-24T01:26:01;10.50;;;8.20;;
23362;SDS011;11853;48.080;11.960;2023-07-24T01:28:30;10.90;;;8.23;;
23362;SDS011;11853;48.080;11.960;2023-07-24T01:30:56;10.98;;;8.18;;
23362;SDS011;11853;48.080;11.960;2023-07-24T01:33:22;9.88;;;8.00;;
23362;SDS011;11853;48.080;11.960;2023-07-24T01:35:50;8.73;;;7.43;;
23362;SDS011;11853;48.080;11.960;2023-07-24T01:38:19;9.02;;;7.57;;
23362;SDS011;11853;48.080;11.960;2023-07-24T01:40:45;11.70;;;8.32;;
23362;SDS011;11853;48.080;11.960;2023-07-24T01:43:11;9.93;;;8.05;;
23362;SDS011;11853;48.080;11.960;2023-07-24T01:45:37;10.40;;;7.55;;
23362;SDS011;11853;48.080;11.960;2023-07-24T01:48:05;9.63;;;7.97;;
23362;SDS011;11853;48.080;11.960;2023-07-24T01:50:31;10.48;;;8.13;;
23362;SDS011;11853;48.080;11.960;2023-07-24T01:52:57;10.15;;;7.55;;
23362;SDS011;11853;48.080;11.960;2023-07-24T01:55:23;9.35;;;7.78;;
23362;SDS011;11853;48.080;11.960;2023-07-24T01:57:48;10.02;;;8.00;;
23362;SDS011;11853;48.080;11.960;2023-07-24T02:00:14;9.45;;;7.30;;
23362;SDS011;11853;48.080;11.960;2023-07-24T02:02:39;10.48;;;7.78;;
23362;SDS011;11853;48.080;11.960;2023-07-24T02:05:05;9.30;;;7.57;;
23362;SDS011;11853;48.080;11.960;2023-07-24T02:07:31;8.27;;;7.35;;
23362;SDS011;11853;48.080;11.960;2023-07-24T02:09:56;11.32;;;8.15;;
23362;SDS011;11853;48.080;11.960;2023-07-24T02:12:22;9.95;;;7.43;;
23362;SDS011;11853;48.080;11.960;2023-07-24T02:14:47;11.18;;;7.97;;
23362;SDS011;11853;48.080;11.960;2023-07-24T02:17:17;9.65;;;8.30;;
23362;SDS011;11853;48.080;11.960;2023-07-24T02:19:43;9.60;;;7.75;;
23362;SDS011;11853;48.080;11.960;2023-07-24T02:22:09;10.05;;;7.70;;
23362;SDS011;11853;48.080;11.960;2023-07-24T02:24:35;11.07;;;8.38;;
23362;SDS011;11853;48.080;11.960;2023-07-24T02:27:00;8.32;;;7.47;;
23362;SDS011;11853;48.080;11.960;2023-07-24T02:29:26;9.95;;;8.50;;
23362;SDS011;11853;48.080;11.960;2023-07-24T02:31:53;9.85;;;7.68;;
23362;SDS011;11853;48.080;11.960;2023-07-24T02:34:19;9.60;;;7.63;;
23362;SDS011;11853;48.080;11.960;2023-07-24T02:36:49;9.75;;;7.72;;
23362;SDS011;11853;48.080;11.960;2023-07-24T02:39:15;10.52;;;8.55;;
23362;SDS011;11853;48.080;11.960;2023-07-24T02:41:41;9.27;;;7.63;;
23362;SDS011;11853;48.080;11.960;2023-07-24T02:44:06;9.90;;;7.90;;
23362;SDS011;11853;48.080;11.960;2023-07-24T02:46:32;10.77;;;8.13;;
23362;SDS011;11853;48.080;11.960;2023-07-24T02:48:57;10.68;;;8.20;;
23362;SDS011;11853;48.080;11.960;2023-07-24T02:51:23;8.40;;;7.40;;
23362;SDS011;11853;48.080;11.960;2023-07-24T02:53:48;8.80;;;7.57;;
23362;SDS011;11853;48.080;11.960;2023-07-24T02:56:14;11.25;;;8.35;;
23362;SDS011;11853;48.080;11.960;2023-07-24T02:58:39;10.00;;;7.68;;
23362;SDS011;11853;48.080;11.960;2023-07-24T03:01:05;11.27;;;8.30;;
23362;SDS011;11853;48.080;11.960;2023-07-24T03:03:32;9.07;;;8.15;;
23362;SDS011;11853;48.080;11.960;2023-07-24T03:05:58;9.98;;;8.25;;
23362;SDS011;11853;48.080;11.960;2023-07-24T03:08:24;10.38;;;8.30;;
23362;SDS011;11853;48.080;11.960;2023-07-24T03:10:49;10.35;;;8.07;;
23362;SDS011;11853;48.080;11.960;2023-07-24T03:13:15;11.70;;;7.88;;
23362;SDS011;11853;48.080;11.960;2023-07-24T03:15:40;9.07;;;7.53;;
23362;SDS011;11853;48.080;11.960;2023-07-24T03:21:27;9.40;;;7.78;;
23362;SDS011;11853;48.080;11.960;2023-07-24T03:27:05;8.43;;;7.47;;
23362;SDS011;11853;48.080;11.960;2023-07-24T03:29:30;10.70;;;7.90;;
23362;SDS011;11853;48.080;11.960;2023-07-24T03:31:56;9.38;;;8.23;;
23362;SDS011;11853;48.080;11.960;2023-07-24T03:34:22;11.70;;;8.13;;
23362;SDS011;11853;48.080;11.960;2023-07-24T03:36:47;12.68;;;8.60;;
23362;SDS011;11853;48.080;11.960;2023-07-24T03:39:13;10.30;;;8.50;;
23362;SDS011;11853;48.080;11.960;2023-07-24T03:41:38;9.93;;;8.10;;
23362;SDS011;11853;48.080;11.960;2023-07-24T03:44:04;10.57;;;7.40;;
23362;SDS011;11853;48.080;11.960;2023-07-24T03:46:33;9.75;;;8.02;;
23362;SDS011;11853;48.080;11.960;2023-07-24T03:48:58;10.35;;;8.27;;
23362;SDS011;11853;48.080;11.960;2023-07-24T03:51:24;14.05;;;8.77;;
23362;SDS011;11853;48.080;11.960;2023-07-24T03:53:49;10.95;;;8.95;;
23362;SDS011;11853;48.080;11.960;2023-07-24T03:56:15;11.27;;;9.13;;
23362;SDS011;11853;48.080;11.960;2023-07-24T03:58:41;10.30;;;9.00;;
23362;SDS011;11853;48.080;11.960;2023-07-24T04:01:07;11.60;;;9.32;;
23362;SDS011;11853;48.080;11.960;2023-07-24T04:03:33;12.07;;;9.00;;
23362;SDS011;11853;48.080;11.960;2023-07-24T04:05:59;13.50;;;10.13;;
23362;SDS011;11853;48.080;11.960;2023-07-24T04:08:25;12.80;;;9.30;;
23362;SDS011;11853;48.080;11.960;2023-07-24T04:10:50;10.88;;;9.00;;
23362;SDS011;11853;48.080;11.960;2023-07-24T04:13:16;10.95;;;9.18;;
23362;SDS011;11853;48.080;11.960;2023-07-24T04:15:41;13.30;;;9.13;;
23362;SDS011;11853;48.080;11.960;2023-07-24T04:18:07;10.82;;;9.38;;
23362;SDS011;11853;48.080;11.960;2023-07-24T04:20:32;11.80;;;9.93;;
23362;SDS011;11853;48.080;11.960;2023-07-24T04:22:58;12.77;;;9.50;;
23362;SDS011;11853;48.080;11.960;2023-07-24T04:25:23;12.27;;;9.32;;
23362;SDS011;11853;48.080;11.960;2023-07-24T04:27:49;13.70;;;9.27;;
23362;SDS011;11853;48.080;11.960;2023-07-24T04:30:14;13.27;;;9.82;;
23362;SDS011;11853;48.080;11.960;2023-07-24T04:32:40;12.45;;;9.55;;
23362;SDS011;11853;48.080;11.960;2023-07-24T04:35:06;12.50;;;9.90;;
23362;SDS011;11853;48.080;11.960;2023-07-24T04:37:32;11.65;;;9.15;;
23362;SDS011;11853;48.080;11.960;2023-07-24T04:39:57;13.05;;;9.60;;
23362;SDS011;11853;48.080;11.960;2023-07-24T04:42:23;10.85;;;9.20;;
23362;SDS011;11853;48.080;11.960;2023-07-24T04:44:48;12.07;;;9.30;;
23362;SDS011;11853;48.080;11.960;2023-07-24T04:47:15;12.80;;;9.85;;
23362;SDS011;11853;48.080;11.960;2023-07-24T04:49:40;13.02;;;9.90;;
23362;SDS011;11853;48.080;11.960;2023-07-24T04:52:06;14.88;;;10.77;;
23362;SDS011;11853;48.080;11.960;2023-07-24T04:54:32;14.60;;;10.10;;
23362;SDS011;11853;48.080;11.960;2023-07-24T04:56:57;12.68;;;9.95;;
23362;SDS011;11853;48.080;11.960;2023-07-24T04:59:23;13.52;;;10.98;;
23362;SDS011;11853;48.080;11.960;2023-07-24T05:01:49;12.63;;;10.70;;
23362;SDS011;11853;48.080;11.960;2023-07-24T05:04:14;12.93;;;10.23;;
23362;SDS011;11853;48.080;11.960;2023-07-24T05:06:40;12.88;;;9.70;;
23362;SDS011;11853;48.080;11.960;2023-07-24T05:09:05;16.92;;;10.77;;
23362;SDS011;11853;48.080;11.960;2023-07-24T05:11:31;14.18;;;10.18;;
23362;SDS011;11853;48.080;11.960;2023-07-24T05:13:56;13.20;;;9.50;;
23362;SDS011;11853;48.080;11.960;2023-07-24T05:16:22;15.63;;;10.63;;
23362;SDS011;11853;48.080;11.960;2023-07-24T05:18:48;13.93;;;9.88;;
23362;SDS011;11853;48.080;11.960;2023-07-24T05:21:13;11.52;;;9.23;;
23362;SDS011;11853;48.080;11.960;2023-07-24T05:23:39;12.95;;;9.90;;
23362;SDS011;11853;48.080;11.960;2023-07-24T05:26:04;11.98;;;9.98;;
23362;SDS011;11853;48.080;11.960;2023-07-24T05:28:30;13.45;;;9.55;;
23362;SDS011;11853;48.080;11.960;2023-07-24T05:31:00;12.95;;;10.13;;
23362;SDS011;11853;48.080;11.960;2023-07-24T05:33:27;12.98;;;10.70;;
23362;SDS011;11853;48.080;11.960;2023-07-24T05:35:57;12.30;;;9.80;;
23362;SDS011;11853;48.080;11.960;2023-07-24T05:38:23;13.10;;;9.93;;
23362;SDS011;11853;48.080;11.960;2023-07-24T05:40:54;11.98;;;9.32;;
23362;SDS011;11853;48.080;11.960;2023-07-24T05:43:22;13.27;;;10.40;;
23362;SDS011;11853;48.080;11.960;2023-07-24T05:45:47;12.15;;;9.52;;
23362;SDS011;11853;48.080;11.960;2023-07-24T05:48:13;12.43;;;9.32;;
23362;SDS011;11853;48.080;11.960;2023-07-24T05:50:38;11.50;;;9.13;;
23362;SDS011;11853;48.080;11.960;2023-07-24T05:53:06;12.90;;;9.70;;
23362;SDS011;11853;48.080;11.960;2023-07-24T05:55:31;9.50;;;8.52;;
23362;SDS011;11853;48.080;11.960;2023-07-24T05:57:57;13.10;;;9.98;;
23362;SDS011;11853;48.080;11.960;2023-07-24T06:00:22;10.90;;;9.07;;
23362;SDS011;11853;48.080;11.960;2023-07-24T06:02:48;12.52;;;9.40;;
23362;SDS011;11853;48.080;11.960;2023-07-24T06:05:13;10.15;;;9.05;;
23362;SDS011;11853;48.080;11.960;2023-07-24T06:07:39;12.50;;;9.38;;
23362;SDS011;11853;48.080;11.960;2023-07-24T06:10:05;12.05;;;9.63;;
23362;SDS011;11853;48.080;11.960;2023-07-24T06:12:30;10.93;;;9.00;;
23362;SDS011;11853;48.080;11.960;2023-07-24T06:14:56;11.68;;;9.43;;
23362;SDS011;11853;48.080;11.960;2023-07-24T06:17:21;12.50;;;9.90;;
23362;SDS011;11853;48.080;11.960;2023-07-24T06:19:47;10.90;;;8.90;;
23362;SDS011;11853;48.080;11.960;2023-07-24T06:22:12;12.35;;;10.88;;
23362;SDS011;11853;48.080;11.960;2023-07-24T06:24:38;12.35;;;9.85;;
23362;SDS011;11853;48.080;11.960;2023-07-24T06:27:04;12.90;;;10.32;;
23362;SDS011;11853;48.080;11.960;2023-07-24T06:29:31;11.00;;;9.57;;
23362;SDS011;11853;48.080;11.960;2023-07-24T06:31:57;12.75;;;9.98;;
23362;SDS011;11853;48.080;11.960;2023-07-24T06:34:23;12.35;;;9.50;;
23362;SDS011;11853;48.080;11.960;2023-07-24T06:36:49;12.05;;;9.50;;
23362;SDS011;11853;48.080;11.960;2023-07-24T06:39:15;13.07;;;9.80;;
23362;SDS011;11853;48.080;11.960;2023-07-24T06:41:40;11.90;;;9.32;;
23362;SDS011;11853;48.080;11.960;2023-07-24T06:44:06;11.80;;;9.77;;
23362;SDS011;11853;48.080;11.960;2023-07-24T06:46:32;12.98;;;10.05;;
23362;SDS011;11853;48.080;11.960;2023-07-24T06:48:57;12.07;;;9.77;;
23362;SDS011;11853;48.080;11.960;2023-07-24T06:51:23;11.63;;;9.57;;
23362;SDS011;11853;48.080;11.960;2023-07-24T06:53:48;11.65;;;9.25;;
23362;SDS011;11853;48.080;11.960;2023-07-24T06:56:14;10.90;;;9.38;;
23362;SDS011;11853;48.080;11.960;2023-07-24T06:58:40;12.15;;;9.68;;
23362;SDS011;11853;48.080;11.960;2023-07-24T07:01:06;12.43;;;9.85;;
23362;SDS011;11853;48.080;11.960;2023-07-24T07:03:32;12.45;;;10.20;;
23362;SDS011;11853;48.080;11.960;2023-07-24T07:06:00;11.70;;;9.30;;
23362;SDS011;11853;48.080;11.960;2023-07-24T07:08:25;14.70;;;10.15;;
23362;SDS011;11853;48.080;11.960;2023-07-24T07:11:00;12.80;;;10.07;;
23362;SDS011;11853;48.080;11.960;2023-07-24T07:13:26;11.40;;;9.48;;
23362;SDS011;11853;48.080;11.960;2023-07-24T07:15:52;12.48;;;9.80;;
23362;SDS011;11853;48.080;11.960;2023-07-24T07:18:18;11.40;;;10.20;;
23362;SDS011;11853;48.080;11.960;2023-07-24T07:20:48;13.20;;;9.43;;
23362;SDS011;11853;48.080;11.960;2023-07-24T07:23:15;12.18;;;9.60;;
23362;SDS011;11853;48.080;11.960;2023-07-24T07:25:40;13.02;;;10.20;;
23362;SDS011;11853;48.080;11.960;2023-07-24T07:28:08;12.73;;;10.25;;
23362;SDS011;11853;48.080;11.960;2023-07-24T07:30:34;13.13;;;10.45;;
23362;SDS011;11853;48.080;11.960;2023-07-24T07:33:00;13.35;;;10.38;;
23362;SDS011;11853;48.080;11.960;2023-07-24T07:35:26;15.13;;;10.60;;
23362;SDS011;11853;48.080;11.960;2023-07-24T07:37:52;11.30;;;9.90;;
23362;SDS011;11853;48.080;11.960;2023-07-24T07:40:17;12.75;;;10.73;;
23362;SDS011;11853;48.080;11.960;2023-07-24T07:42:43;11.63;;;9.93;;
23362;SDS011;11853;48.080;11.960;2023-07-24T07:45:10;14.75;;;11.02;;
23362;SDS011;11853;48.080;11.960;2023-07-24T07:47:36;12.02;;;10.05;;
23362;SDS011;11853;48.080;11.960;2023-07-24T07:50:02;12.88;;;10.02;;
23362;SDS011;11853;48.080;11.960;2023-07-24T07:52:28;12.73;;;9.82;;
23362;SDS011;11853;48.080;11.960;2023-07-24T07:54:53;11.32;;;9.40;;
23362;SDS011;11853;48.080;11.960;2023-07-24T07:57:19;11.80;;;9.93;;
23362;SDS011;11853;48.080;11.960;2023-07-24T07:59:45;12.70;;;10.38;;
23362;SDS011;11853;48.080;11.960;2023-07-24T08:02:10;13.48;;;10.80;;
23362;SDS011;11853;48.080;11.960;2023-07-24T08:04:36;13.43;;;9.88;;
23362;SDS011;11853;48.080;11.960;2023-07-24T08:07:02;11.07;;;9.57;;
23362;SDS011;11853;48.080;11.960;2023-07-24T08:09:28;12.88;;;9.70;;
23362;SDS011;11853;48.080;11.960;2023-07-24T08:11:53;12.23;;;9.60;;
23362;SDS011;11853;48.080;11.960;2023-07-24T08:14:19;12.35;;;9.73;;
23362;SDS011;11853;48.080;11.960;2023-07-24T08:16:47;11.00;;;9.75;;
23362;SDS011;11853;48.080;11.960;2023-07-24T08:19:13;12.30;;;10.38;;
23362;SDS011;11853;48.080;11.960;2023-07-24T08:21:39;13.75;;;9.43;;
23362;SDS011;11853;48.080;11.960;2023-07-24T08:24:05;10.43;;;9.20;;
23362;SDS011;11853;48.080;11.960;2023-07-24T08:26:31;12.18;;;10.20;;
23362;SDS011;11853;48.080;11.960;2023-07-24T08:28:57;11.77;;;10.13;;
23362;SDS011;11853;48.080;11.960;2023-07-24T08:31:23;12.32;;;10.30;;
23362;SDS011;11853;48.080;11.960;2023-07-24T08:33:48;11.18;;;8.98;;
23362;SDS011;11853;48.080;11.960;2023-07-24T08:36:14;11.70;;;9.48;;
23362;SDS011;11853;48.080;11.960;2023-07-24T08:38:40;10.88;;;9.73;;
23362;SDS011;11853;48.080;11.960;2023-07-24T08:41:11;13.25;;;9.50;;
23362;SDS011;11853;48.080;11.960;2023-07-24T08:43:40;13.00;;;10.10;;
23362;SDS011;11853;48.080;11.960;2023-07-24T08:46:07;10.82;;;8.82;;
23362;SDS011;11853;48.080;11.960;2023-07-24T08:48:37;10.55;;;9.13;;
23362;SDS011;11853;48.080;11.960;2023-07-24T08:51:08;12.45;;;9.68;;
23362;SDS011;11853;48.080;11.960;2023-07-24T08:53:35;11.50;;;9.60;;
23362;SDS011;11853;48.080;11.960;2023-07-24T08:56:04;10.70;;;9.38;;
23362;SDS011;11853;48.080;11.960;2023-07-24T08:58:30;11.63;;;9.85;;
23362;SDS011;11853;48.080;11.960;2023-07-24T09:00:56;15.48;;;9.57;;
23362;SDS011;11853;48.080;11.960;2023-07-24T09:03:23;12.32;;;9.45;;
23362;SDS011;11853;48.080;11.960;2023-07-24T09:05:49;11.48;;;9.02;;
23362;SDS011;11853;48.080;11.960;2023-07-24T09:08:15;11.05;;;9.50;;
23362;SDS011;11853;48.080;11.960;2023-07-24T09:10:40;11.27;;;8.68;;
23362;SDS011;11853;48.080;11.960;2023-07-24T09:13:06;12.10;;;9.40;;
23362;SDS011;11853;48.080;11.960;2023-07-24T09:15:42;10.23;;;8.82;;
23362;SDS011;11853;48.080;11.960;2023-07-24T09:18:08;10.70;;;8.90;;
23362;SDS011;11853;48.080;11.960;2023-07-24T09:20:40;10.65;;;9.27;;
23362;SDS011;11853;48.080;11.960;2023-07-24T09:23:09;11.98;;;9.13;;
23362;SDS011;11853;48.080;11.960;2023-07-24T09:25:36;10.93;;;9.05;;
23362;SDS011;11853;48.080;11.960;2023-07-24T09:28:13;11.25;;;8.88;;
23362;SDS011;11853;48.080;11.960;2023-07-24T09:30:39;10.73;;;8.63;;
23362;SDS011;11853;48.080;11.960;2023-07-24T09:33:06;10.63;;;8.27;;
23362;SDS011;11853;48.080;11.960;2023-07-24T09:35:32;11.75;;;8.82;;
23362;SDS011;11853;48.080;11.960;2023-07-24T09:38:04;9.13;;;8.20;;
23362;SDS011;11853;48.080;11.960;2023-07-24T09:40:40;11.45;;;9.35;;
23362;SDS011;11853;48.080;11.960;2023-07-24T09:45:45;9.57;;;8.20;;
23362;SDS011;11853;48.080;11.960;2023-07-24T09:48:13;11.15;;;8.45;;
23362;SDS011;11853;48.080;11.960;2023-07-24T09:50:43;10.35;;;8.63;;
23362;SDS011;11853;48.080;11.960;2023-07-24T09:55:57;12.30;;;9.10;;
23362;SDS011;11853;48.080;11.960;2023-07-24T09:58:25;11.13;;;9.07;;
23362;SDS011;11853;48.080;11.960;2023-07-24T10:00:51;10.68;;;9.27;;
23362;SDS011;11853;48.080;11.960;2023-07-24T10:03:18;11.23;;;9.35;;
23362;SDS011;11853;48.080;11.960;2023-07-24T10:05:45;12.15;;;9.18;;
23362;SDS011;11853;48.080;11.960;2023-07-24T10:08:12;11.23;;;9.02;;
23362;SDS011;11853;48.080;11.960;2023-07-24T10:10:42;11.45;;;8.80;;
23362;SDS011;11853;48.080;11.960;2023-07-24T10:13:08;12.35;;;8.95;;
23362;SDS011;11853;48.080;11.960;2023-07-24T10:15:39;9.93;;;7.93;;
23362;SDS011;11853;48.080;11.960;2023-07-24T10:18:06;10.23;;;8.50;;
23362;SDS011;11853;48.080;11.960;2023-07-24T10:20:36;9.70;;;8.20;;
23362;SDS011;11853;48.080;11.960;2023-07-24T10:23:04;9.25;;;7.57;;
23362;SDS011;11853;48.080;11.960;2023-07-24T10:25:31;9.93;;;8.18;;
23362;SDS011;11853;48.080;11.960;2023-07-24T10:38:02;9.90;;;6.97;;
23362;SDS011;11853;48.080;11.960;2023-07-24T10:40:28;9.20;;;7.57;;
23362;SDS011;11853;48.080;11.960;2023-07-24T10:43:00;7.97;;;6.93;;
23362;SDS011;11853;48.080;11.960;2023-07-24T10:45:38;7.80;;;6.57;;
23362;SDS011;11853;48.080;11.960;2023-07-24T10:48:04;9.35;;;6.93;;
23362;SDS011;11853;48.080;11.960;2023-07-24T10:50:38;8.15;;;6.68;;
23362;SDS011;11853;48.080;11.960;2023-07-24T10:53:04;7.28;;;6.47;;
23362;SDS011;11853;48.080;11.960;2023-07-24T10:55:30;7.07;;;6.28;;
23362;SDS011;11853;48.080;11.960;2023-07-24T10:57:55;6.80;;;5.80;;
23362;SDS011;11853;48.080;11.960;2023-07-24T11:00:21;6.80;;;6.10;;
23362;SDS011;11853;48.080;11.960;2023-07-24T11:02:46;7.57;;;6.40;;
23362;SDS011;11853;48.080;11.960;2023-07-24T11:05:12;9.50;;;7.45;;
23362;SDS011;11853;48.080;11.960;2023-07-24T11:07:39;8.68;;;6.68;;
23362;SDS011;11853;48.080;11.960;2023-07-24T11:10:14;7.10;;;6.40;;
23362;SDS011;11853;48.080;11.960;2023-07-24T11:12:40;6.75;;;6.07;;
23362;SDS011;11853;48.080;11.960;2023-07-24T11:15:06;6.85;;;6.13;;
23362;SDS011;11853;48.080;11.960;2023-07-24T11:17:35;8.75;;;7.75;;
23362;SDS011;11853;48.080;11.960;2023-07-24T11:20:11;8.50;;;6.90;;
23362;SDS011;11853;48.080;11.960;2023-07-24T11:22:42;9.00;;;6.77;;
23362;SDS011;11853;48.080;11.960;2023-07-24T11:25:09;7.30;;;6.60;;
23362;SDS011;11853;48.080;11.960;2023-07-24T11:27:39;8.10;;;7.22;;
23362;SDS011;11853;48.080;11.960;2023-07-24T11:30:07;7.97;;;6.75;;
23362;SDS011;11853;48.080;11.960;2023-07-24T11:32:33;9.55;;;7.60;;
23362;SDS011;11853;48.080;11.960;2023-07-24T11:34:59;9.32;;;7.60;;
23362;SDS011;11853;48.080;11.960;2023-07-24T11:37:25;7.15;;;6.45;;
23362;SDS011;11853;48.080;11.960;2023-07-24T11:42:26;7.05;;;6.35;;
23362;SDS011;11853;48.080;11.960;2023-07-24T11:44:52;6.88;;;6.18;;
23362;SDS011;11853;48.080;11.960;2023-07-24T11:47:18;9.45;;;6.32;;
23362;SDS011;11853;48.080;11.960;2023-07-24T11:49:44;7.85;;;6.70;;
23362;SDS011;11853;48.080;11.960;2023-07-24T11:52:13;7.13;;;6.43;;
23362;SDS011;11853;48.080;11.960;2023-07-24T11:54:39;7.82;;;7.03;;
23362;SDS011;11853;48.080;11.960;2023-07-24T11:57:16;9.95;;;7.20;;
23362;SDS011;11853;48.080;11.960;2023-07-24T11:59:41;8.40;;;7.50;;
23362;SDS011;11853;48.080;11.960;2023-07-24T12:02:09;8.57;;;7.18;;
23362;SDS011;11853;48.080;11.960;2023-07-24T12:04:37;7.53;;;6.78;;
23362;SDS011;11853;48.080;11.960;2023-07-24T12:07:11;7.80;;;7.00;;
23362;SDS011;11853;48.080;11.960;2023-07-24T12:09:37;9.68;;;7.43;;
23362;SDS011;11853;48.080;11.960;2023-07-24T12:12:03;8.20;;;7.35;;
23362;SDS011;11853;48.080;11.960;2023-07-24T12:14:29;7.35;;;6.65;;
23362;SDS011;11853;48.080;11.960;2023-07-24T12:17:01;7.90;;;6.80;;
23362;SDS011;11853;48.080;11.960;2023-07-24T12:19:27;7.32;;;6.63;;
23362;SDS011;11853;48.080;11.960;2023-07-24T12:21:53;7.85;;;6.78;;
23362;SDS011;11853;48.080;11.960;2023-07-24T12:24:19;8.55;;;6.70;;
23362;SDS011;11853;48.080;11.960;2023-07-24T12:26:44;6.25;;;5.65;;
23362;SDS011;11853;48.080;11.960;2023-07-24T12:29:10;7.93;;;7.13;;
23362;SDS011;11853;48.080;11.960;2023-07-24T12:31:35;7.68;;;6.70;;
23362;SDS011;11853;48.080;11.960;2023-07-24T12:34:01;7.50;;;6.20;;
23362;SDS011;11853;48.080;11.960;2023-07-24T12:36:26;6.20;;;5.60;;
23362;SDS011;11853;48.080;11.960;2023-07-24T12:38:52;7.68;;;6.88;;
23362;SDS011;11853;48.080;11.960;2023-07-24T12:41:18;8.32;;;6.93;;
23362;SDS011;11853;48.080;11.960;2023-07-24T12:43:44;8.60;;;6.40;;
23362;SDS011;11853;48.080;11.960;2023-07-24T12:46:10;9.15;;;6.85;;
23362;SDS011;11853;48.080;11.960;2023-07-24T12:48:35;6.63;;;5.93;;
23362;SDS011;11853;48.080;11.960;2023-07-24T12:51:01;6.97;;;6.28;;
23362;SDS011;11853;48.080;11.960;2023-07-24T12:53:30;8.82;;;7.28;;
23362;SDS011;11853;48.080;11.960;2023-07-24T12:55:55;7.47;;;6.72;;
23362;SDS011;11853;48.080;11.960;2023-07-24T12:58:21;8.82;;;6.40;;
23362;SDS011;11853;48.080;11.960;2023-07-24T13:00:47;7.80;;;5.55;;
23362;SDS011;11853;48.080;11.960;2023-07-24T13:03:12;7.25;;;6.30;;
23362;SDS011;11853;48.080;11.960;2023-07-24T13:05:37;6.93;;;5.60;;
23362;SDS011;11853;48.080;11.960;2023-07-24T13:08:06;6.28;;;5.20;;
23362;SDS011;11853;48.080;11.960;2023-07-24T13:10:55;7.28;;;5.47;;
23362;SDS011;11853;48.080;11.960;2023-07-24T13:13:21;9.57;;;6.35;;
23362;SDS011;11853;48.080;11.960;2023-07-24T13:15:47;8.23;;;5.82;;
23362;SDS011;11853;48.080;11.960;2023-07-24T13:18:16;6.85;;;5.72;;
23362;SDS011;11853;48.080;11.960;2023-07-24T13:20:42;8.82;;;6.20;;
23362;SDS011;11853;48.080;11.960;2023-07-24T13:23:08;6.90;;;6.20;;
23362;SDS011;11853;48.080;11.960;2023-07-24T13:25:33;9.82;;;6.00;;
23362;SDS011;11853;48.080;11.960;2023-07-24T13:27:59;7.45;;;5.97;;
23362;SDS011;11853;48.080;11.960;2023-07-24T13:30:25;7.65;;;6.35;;
23362;SDS011;11853;48.080;11.960;2023-07-24T13:32:50;7.28;;;6.05;;
23362;SDS011;11853;48.080;11.960;2023-07-24T13:35:16;7.35;;;6.20;;
23362;SDS011;11853;48.080;11.960;2023-07-24T13:37:42;7.15;;;6.00;;
23362;SDS011;11853;48.080;11.960;2023-07-24T13:40:08;8.20;;;6.10;;
23362;SDS011;11853;48.080;11.960;2023-07-24T13:42:34;7.25;;;6.38;;
23362;SDS011;11853;48.080;11.960;2023-07-24T13:44:59;6.53;;;5.80;;
23362;SDS011;11853;48.080;11.960;2023-07-24T13:47:25;7.63;;;5.57;;
23362;SDS011;11853;48.080;11.960;2023-07-24T13:49:50;6.75;;;5.53;;
23362;SDS011;11853;48.080;11.960;2023-07-24T13:52:16;6.07;;;5.28;;
23362;SDS011;11853;48.080;11.960;2023-07-24T13:54:42;6.72;;;5.50;;
23362;SDS011;11853;48.080;11.960;2023-07-24T13:57:07;5.88;;;5.13;;
23362;SDS011;11853;48.080;11.960;2023-07-24T13:59:34;5.63;;;4.93;;
23362;SDS011;11853;48.080;11.960;2023-07-24T14:02:00;6.95;;;5.30;;
23362;SDS011;11853;48.080;11.960;2023-07-24T14:04:26;5.43;;;4.93;;
23362;SDS011;11853;48.080;11.960;2023-07-24T14:06:52;6.45;;;5.70;;
23362;SDS011;11853;48.080;11.960;2023-07-24T14:09:17;5.78;;;4.70;;
23362;SDS011;11853;48.080;11.960;2023-07-24T14:11:43;7.22;;;5.22;;
23362;SDS011;11853;48.080;11.960;2023-07-24T14:14:09;6.70;;;5.50;;
23362;SDS011;11853;48.080;11.960;2023-07-24T14:16:34;5.35;;;4.82;;
23362;SDS011;11853;48.080;11.960;2023-07-24T14:19:00;6.22;;;4.57;;
23362;SDS011;11853;48.080;11.960;2023-07-24T14:21:25;5.40;;;4.68;;
23362;SDS011;11853;48.080;11.960;2023-07-24T14:23:51;6.03;;;5.05;;
23362;SDS011;11853;48.080;11.960;2023-07-24T14:26:19;4.43;;;4.03;;
23362;SDS011;11853;48.080;11.960;2023-07-24T14:28:48;5.13;;;4.63;;
23362;SDS011;11853;48.080;11.960;2023-07-24T14:31:14;4.80;;;4.30;;
23362;SDS011;11853;48.080;11.960;2023-07-24T14:33:42;5.28;;;4.53;;
23362;SDS011;11853;48.080;11.960;2023-07-24T14:36:08;5.18;;;4.68;;
23362;SDS011;11853;48.080;11.960;2023-07-24T14:38:34;6.28;;;4.50;;
23362;SDS011;11853;48.080;11.960;2023-07-24T14:41:05;5.82;;;4.70;;
23362;SDS011;11853;48.080;11.960;2023-07-24T14:43:40;4.50;;;4.03;;
23362;SDS011;11853;48.080;11.960;2023-07-24T14:46:11;5.65;;;4.60;;
23362;SDS011;11853;48.080;11.960;2023-07-24T14:48:37;5.35;;;4.82;;
23362;SDS011;11853;48.080;11.960;2023-07-24T14:51:02;5.78;;;4.88;;